createdAt,value
2023-08-11T00:01:12.084Z,25.57
2023-08-11T00:03:39.115Z,25.38
2023-08-11T00:06:06.020Z,25.36
2023-08-11T00:08:32.913Z,25.21
2023-08-11T00:10:59.869Z,25.27
2023-08-11T00:13:26.854Z,25.01
2023-08-11T00:15:53.746Z,24.79
2023-08-11T00:18:20.772Z,24.76
2023-08-11T00:20:47.661Z,25.05
2023-08-11T00:23:14.538Z,25.17
2023-08-11T00:25:41.431Z,25.10
2023-08-11T00:28:08.454Z,25.04
2023-08-11T00:30:35.331Z,24.62
2023-08-11T00:33:02.146Z,24.58
2023-08-11T00:35:29.051Z,24.75
2023-08-11T00:37:56.037Z,24.91
2023-08-11T00:40:22.980Z,25.04
2023-08-11T00:42:49.970Z,25.13
2023-08-11T00:45:16.840Z,25.20
2023-08-11T00:47:43.942Z,25.11
2023-08-11T00:50:10.882Z,24.47
2023-08-11T00:52:37.700Z,24.17
2023-08-11T00:55:04.550Z,24.25
2023-08-11T00:57:31.485Z,24.40
2023-08-11T00:59:58.552Z,24.83
2023-08-11T01:02:28.464Z,24.98
2023-08-11T01:04:55.360Z,25.13
2023-08-11T01:07:22.202Z,25.23
2023-08-11T01:09:49.268Z,25.16
2023-08-11T01:12:16.309Z,25.05
2023-08-11T01:14:43.253Z,24.61
2023-08-11T01:17:10.564Z,24.80
2023-08-11T01:19:37.867Z,24.73
2023-08-11T01:22:04.737Z,24.91
2023-08-11T01:24:31.852Z,24.86
2023-08-11T01:26:58.794Z,24.65
2023-08-11T01:29:25.666Z,24.47
2023-08-11T01:31:52.691Z,24.73
2023-08-11T01:34:19.675Z,24.71
2023-08-11T01:36:46.655Z,24.18
2023-08-11T01:39:13.625Z,24.44
2023-08-11T01:41:40.597Z,24.27
2023-08-11T01:44:07.558Z,24.65
2023-08-11T01:46:34.616Z,24.44
2023-08-11T01:49:01.565Z,24.53
2023-08-11T01:51:28.692Z,24.61
2023-08-11T01:53:55.549Z,24.66
2023-08-11T01:56:22.651Z,24.37
2023-08-11T01:58:49.595Z,24.59
2023-08-11T02:01:16.578Z,24.69
2023-08-11T02:03:43.617Z,24.53
2023-08-11T02:06:10.728Z,24.55
2023-08-11T02:08:37.638Z,24.65
2023-08-11T02:11:04.540Z,24.83
2023-08-11T02:13:31.408Z,24.96
2023-08-11T02:15:58.363Z,24.92
2023-08-11T02:18:25.182Z,24.81
2023-08-11T02:20:52.017Z,24.50
2023-08-11T02:23:19.003Z,24.23
2023-08-11T02:25:45.862Z,24.19
2023-08-11T02:28:12.726Z,24.29
2023-08-11T02:30:39.616Z,24.23
2023-08-11T02:33:06.624Z,23.95
2023-08-11T02:35:33.596Z,23.93
2023-08-11T02:38:00.580Z,24.15
2023-08-11T02:40:27.494Z,24.14
2023-08-11T02:42:54.297Z,24.11
2023-08-11T02:45:21.188Z,24.08
2023-08-11T02:47:48.203Z,24.09
2023-08-11T02:50:18.392Z,24.07
2023-08-11T02:52:45.327Z,23.97
2023-08-11T02:55:12.180Z,23.99
2023-08-11T02:57:38.981Z,24.02
2023-08-11T03:00:05.821Z,24.11
2023-08-11T03:02:32.738Z,23.88
2023-08-11T03:04:59.646Z,23.73
2023-08-11T03:07:26.543Z,23.59
2023-08-11T03:09:53.612Z,23.36
2023-08-11T03:12:20.537Z,23.16
2023-08-11T03:14:47.437Z,23.09
2023-08-11T03:17:14.476Z,23.18
2023-08-11T03:19:41.469Z,23.16
2023-08-11T03:22:08.636Z,23.12
2023-08-11T03:24:35.634Z,23.32
2023-08-11T03:27:02.496Z,23.15
2023-08-11T03:29:29.544Z,23.32
2023-08-11T03:31:56.521Z,23.35
2023-08-11T03:34:23.436Z,23.34
2023-08-11T03:36:50.281Z,23.37
2023-08-11T03:39:17.065Z,23.56
2023-08-11T03:41:44.152Z,23.73
2023-08-11T03:44:11.062Z,23.71
2023-08-11T03:46:37.953Z,23.53
2023-08-11T03:49:04.811Z,23.48
2023-08-11T03:51:31.786Z,23.06
2023-08-11T03:54:01.018Z,23.02
2023-08-11T03:56:28.894Z,23.11
2023-08-11T03:58:55.716Z,23.42
2023-08-11T04:01:22.879Z,23.44
2023-08-11T04:03:49.892Z,23.38
2023-08-11T04:06:16.852Z,23.43
2023-08-11T04:08:43.732Z,23.70
2023-08-11T04:11:10.644Z,23.89
2023-08-11T04:13:37.530Z,23.90
2023-08-11T04:16:04.637Z,24.03
2023-08-11T04:18:31.575Z,24.01
2023-08-11T04:20:58.589Z,24.02
2023-08-11T04:23:25.389Z,24.13
2023-08-11T04:25:52.410Z,24.19
2023-08-11T04:28:19.445Z,24.30
2023-08-11T04:30:46.274Z,24.30
2023-08-11T04:33:13.391Z,24.19
2023-08-11T04:35:40.589Z,24.19
2023-08-11T04:38:07.513Z,24.30
2023-08-11T04:40:34.353Z,24.29
2023-08-11T04:43:01.277Z,24.38
2023-08-11T04:45:28.263Z,24.37
2023-08-11T04:47:55.171Z,24.28
2023-08-11T04:50:22.114Z,23.95
2023-08-11T04:52:48.957Z,24.03
2023-08-11T04:55:15.812Z,24.14
2023-08-11T04:57:42.803Z,23.77
2023-08-11T05:00:09.709Z,23.82
2023-08-11T05:02:36.697Z,23.98
2023-08-11T05:05:03.675Z,23.79
2023-08-11T05:07:30.573Z,23.84
2023-08-11T05:10:00.502Z,23.87
2023-08-11T05:12:30.520Z,23.71
2023-08-11T05:14:57.413Z,23.67
2023-08-11T05:17:24.442Z,23.56
2023-08-11T05:19:51.402Z,23.82
2023-08-11T05:22:18.256Z,23.90
2023-08-11T05:24:45.078Z,24.01
2023-08-11T05:27:11.986Z,24.03
2023-08-11T05:29:38.976Z,23.91
2023-08-11T05:32:15.004Z,23.89
2023-08-11T05:34:41.898Z,24.07
2023-08-11T05:37:09.317Z,24.31
2023-08-11T07:34:56.683Z,23.25
2023-08-11T07:37:23.553Z,23.36
2023-08-11T07:39:59.464Z,23.36
2023-08-11T07:42:26.356Z,23.51
2023-08-11T07:44:53.227Z,23.43
2023-08-11T07:47:21.607Z,23.49
2023-08-11T07:49:48.497Z,23.38
2023-08-11T07:52:15.350Z,23.53
2023-08-11T07:54:42.296Z,23.17
2023-08-11T07:57:09.418Z,23.15
2023-08-11T07:59:36.513Z,23.22
2023-08-11T08:02:03.440Z,23.06
2023-08-11T08:04:30.549Z,22.92
2023-08-11T08:06:57.441Z,22.74
2023-08-11T08:09:24.231Z,22.76
2023-08-11T08:11:51.035Z,22.86
2023-08-11T08:14:17.885Z,22.71
2023-08-11T08:16:44.791Z,22.63
2023-08-11T08:19:11.640Z,22.78
2023-08-11T08:21:38.471Z,23.03
2023-08-11T08:24:05.315Z,22.92
2023-08-11T08:26:32.177Z,22.93
2023-08-11T08:28:59.054Z,22.98
2023-08-11T08:31:25.887Z,23.03
2023-08-11T08:33:52.827Z,23.15
2023-08-11T08:36:19.730Z,23.23
2023-08-11T08:38:46.582Z,23.18
2023-08-11T08:41:13.430Z,23.08
2023-08-11T08:43:40.317Z,23.08
2023-08-11T08:46:07.213Z,23.08
2023-08-11T08:48:34.119Z,23.16
2023-08-11T08:51:00.996Z,23.08
2023-08-11T08:53:27.936Z,23.16
2023-08-11T08:55:54.739Z,23.05
2023-08-11T08:58:21.562Z,22.98
2023-08-11T09:00:48.390Z,23.12
2023-08-11T09:03:15.633Z,23.08
2023-08-11T09:05:42.781Z,23.22
2023-08-11T09:08:09.624Z,23.34
2023-08-11T09:10:36.441Z,23.39
2023-08-11T09:13:03.311Z,23.22
2023-08-11T09:15:30.200Z,23.27
2023-08-11T09:17:57.092Z,23.19
2023-08-11T09:20:24.118Z,23.29
2023-08-11T09:22:51.020Z,23.27
2023-08-11T09:25:17.915Z,23.33
2023-08-11T09:27:44.736Z,23.44
2023-08-11T09:30:11.587Z,23.68
2023-08-11T09:32:38.511Z,23.74
2023-08-11T09:35:05.412Z,23.65
2023-08-11T09:37:32.307Z,23.74
2023-08-11T09:39:59.197Z,23.93
2023-08-11T09:42:26.056Z,23.86
2023-08-11T09:44:52.897Z,23.80
2023-08-11T09:47:22.794Z,23.90
2023-08-11T09:49:50.247Z,24.01
2023-08-11T09:52:17.049Z,24.49
2023-08-11T09:54:43.860Z,23.99
2023-08-11T09:57:10.763Z,23.55
2023-08-11T09:59:37.608Z,23.60
2023-08-11T10:02:04.498Z,23.76
2023-08-11T10:04:31.386Z,23.90
2023-08-11T10:06:58.210Z,24.19
2023-08-11T10:09:25.064Z,24.27
2023-08-11T10:11:51.918Z,24.06
2023-08-11T10:14:18.770Z,24.23
2023-08-11T10:16:45.612Z,24.31
2023-08-11T10:19:12.426Z,24.28
2023-08-11T10:21:39.288Z,24.16
2023-08-11T10:24:06.106Z,24.50
2023-08-11T10:26:35.994Z,24.09
2023-08-11T10:29:02.825Z,24.19
2023-08-11T10:31:29.711Z,24.15
2023-08-11T10:33:56.564Z,24.25
2023-08-11T10:36:26.410Z,24.27
2023-08-11T10:38:53.207Z,24.43
2023-08-11T10:41:20.014Z,24.35
2023-08-11T10:43:46.882Z,24.48
2023-08-11T10:46:13.879Z,24.42
2023-08-11T10:48:40.708Z,24.54
2023-08-11T10:51:07.536Z,24.47
2023-08-11T10:53:34.468Z,24.47
2023-08-11T10:56:01.455Z,24.56
2023-08-11T10:58:28.399Z,24.71
2023-08-11T11:00:55.228Z,24.74
2023-08-11T11:03:22.070Z,24.83
2023-08-11T11:05:48.895Z,24.82
2023-08-11T11:08:15.692Z,24.75
2023-08-11T11:10:50.065Z,24.64
2023-08-11T11:13:17.831Z,24.57
2023-08-11T11:15:44.719Z,24.90
2023-08-11T11:18:11.637Z,25.01
2023-08-11T11:20:38.489Z,24.92
2023-08-11T11:23:05.392Z,25.01
2023-08-11T11:25:32.296Z,24.88
2023-08-11T11:27:59.215Z,24.77
2023-08-11T11:30:26.099Z,24.65
2023-08-11T11:32:52.957Z,24.64
2023-08-11T11:35:19.819Z,24.94
2023-08-11T11:37:46.692Z,25.07
2023-08-11T11:40:13.605Z,25.01
2023-08-11T11:42:40.434Z,24.81
2023-08-11T11:45:07.277Z,24.82
2023-08-11T11:47:34.254Z,24.72
2023-08-11T11:50:01.129Z,24.66
2023-08-11T11:52:27.999Z,24.91
2023-08-11T11:54:54.893Z,25.17
2023-08-11T11:57:21.907Z,25.05
2023-08-11T11:59:48.765Z,25.03
2023-08-11T12:02:19.682Z,24.79
2023-08-11T12:04:47.694Z,24.78
2023-08-11T12:07:14.602Z,24.79
2023-08-11T12:09:41.583Z,25.22
2023-08-11T12:12:08.642Z,25.16
2023-08-11T12:14:35.754Z,25.43
2023-08-11T12:17:02.638Z,25.31
2023-08-11T12:19:29.542Z,25.20
2023-08-11T12:21:56.392Z,25.37
2023-08-11T12:24:23.294Z,25.49
2023-08-11T12:26:50.121Z,25.64
2023-08-11T12:29:17.018Z,25.38
2023-08-11T12:31:46.893Z,25.55
2023-08-11T12:34:13.730Z,25.56
2023-08-11T12:36:40.640Z,25.17
2023-08-11T12:39:07.495Z,25.33
2023-08-11T12:41:34.468Z,25.17
2023-08-11T12:44:01.381Z,24.96
2023-08-11T12:46:28.241Z,25.08
2023-08-11T12:48:55.079Z,25.17
2023-08-11T12:51:21.976Z,25.30
2023-08-11T12:53:48.838Z,25.43
2023-08-11T12:56:15.647Z,25.32
2023-08-11T12:58:45.453Z,25.30
2023-08-11T13:01:13.249Z,25.32
2023-08-11T13:03:41.504Z,25.60
2023-08-11T13:06:08.412Z,25.47
2023-08-11T13:08:35.329Z,25.44
2023-08-11T13:11:02.293Z,25.55
2023-08-11T13:13:29.082Z,25.57
2023-08-11T13:15:55.985Z,25.27
2023-08-11T13:18:22.779Z,25.23
2023-08-11T13:20:49.614Z,25.26
2023-08-11T13:23:16.460Z,25.31
2023-08-11T13:25:43.302Z,25.51
2023-08-11T13:28:10.129Z,25.39
2023-08-11T13:30:42.358Z,25.45
2023-08-11T13:33:10.336Z,25.53
2023-08-11T13:35:37.313Z,25.60
2023-08-11T13:38:04.165Z,25.42
2023-08-11T13:40:31.017Z,25.78
2023-08-11T13:42:57.903Z,26.04
2023-08-11T13:45:24.828Z,25.88
2023-08-11T13:47:51.763Z,25.64
2023-08-11T13:50:18.728Z,25.77
2023-08-11T13:52:45.538Z,25.55
2023-08-11T13:55:12.372Z,25.74
2023-08-11T13:57:39.277Z,26.07
2023-08-11T14:00:06.069Z,25.79
2023-08-11T14:02:33.055Z,26.19
2023-08-11T14:05:02.951Z,26.03
2023-08-11T14:07:32.495Z,25.74
2023-08-11T14:10:01.394Z,25.85
2023-08-11T14:12:28.302Z,25.90
2023-08-11T14:14:55.204Z,25.91
2023-08-11T14:17:22.073Z,26.31
2023-08-11T14:19:48.976Z,26.63
2023-08-11T14:22:15.852Z,26.20
2023-08-11T14:24:42.683Z,26.09
2023-08-11T14:27:09.573Z,26.34
2023-08-11T14:29:36.490Z,26.25
2023-08-11T14:32:18.316Z,26.36
2023-08-11T14:34:50.175Z,26.18
2023-08-11T14:37:17.822Z,26.05
2023-08-11T14:39:44.998Z,26.00
2023-08-11T14:42:12.124Z,26.13
2023-08-11T14:44:39.155Z,26.10
2023-08-11T14:47:05.991Z,26.35
2023-08-11T14:49:32.951Z,26.24
2023-08-11T14:51:59.867Z,26.09
2023-08-11T14:54:27.900Z,26.06
2023-08-11T14:56:54.941Z,26.26
2023-08-11T14:59:21.786Z,26.26
2023-08-11T15:01:48.604Z,26.41
2023-08-11T15:04:15.500Z,26.29
2023-08-11T15:06:42.374Z,26.22
2023-08-11T15:09:09.205Z,26.24
2023-08-11T15:11:36.158Z,26.42
2023-08-11T15:14:03.054Z,26.32
2023-08-11T15:16:29.955Z,26.25
2023-08-11T15:18:56.824Z,26.30
2023-08-11T15:21:23.706Z,26.35
2023-08-11T15:23:50.630Z,26.34
2023-08-11T15:26:17.441Z,26.48
2023-08-11T15:28:44.354Z,26.65
2023-08-11T15:31:11.274Z,26.72
2023-08-11T15:34:01.204Z,26.63
2023-08-11T15:36:28.130Z,26.66
2023-08-11T15:38:54.974Z,26.42
2023-08-11T15:41:21.833Z,26.44
2023-08-11T15:43:48.783Z,26.44
2023-08-11T15:46:15.643Z,26.58
2023-08-11T15:48:42.604Z,26.67
2023-08-11T15:51:09.469Z,26.47
2023-08-11T15:53:36.352Z,26.45
2023-08-11T15:56:03.229Z,26.52
2023-08-11T15:58:30.353Z,26.60
2023-08-11T16:00:57.359Z,26.87
2023-08-11T16:03:24.349Z,26.81
2023-08-11T16:05:51.341Z,26.87
2023-08-11T16:08:18.227Z,26.82
2023-08-11T16:10:45.102Z,26.85
2023-08-11T16:13:12.000Z,26.69
2023-08-11T16:15:38.838Z,26.69
2023-08-11T16:18:05.682Z,26.76
2023-08-11T16:20:32.532Z,26.60
2023-08-11T16:22:59.421Z,26.66
2023-08-11T16:25:26.308Z,26.81
2023-08-11T16:27:53.240Z,26.92
2023-08-11T16:30:20.118Z,26.92
2023-08-11T16:32:47.048Z,26.86
2023-08-11T16:35:13.925Z,26.85
2023-08-11T16:37:40.766Z,26.77
2023-08-11T16:40:07.609Z,26.97
2023-08-11T16:42:34.474Z,27.09
2023-08-11T16:45:01.428Z,27.04
2023-08-11T16:47:31.277Z,27.15
2023-08-11T16:49:58.129Z,27.19
2023-08-11T16:52:24.977Z,26.93
2023-08-11T16:54:51.894Z,26.77
2023-08-11T16:57:18.738Z,27.08
2023-08-11T16:59:45.618Z,27.13
2023-08-11T17:02:12.654Z,27.25
2023-08-11T17:04:39.806Z,27.16
2023-08-11T17:07:06.670Z,27.46
2023-08-11T17:09:33.585Z,27.36
2023-08-11T17:12:00.432Z,27.47
2023-08-11T17:14:27.298Z,27.42
2023-08-11T17:16:54.267Z,27.36
2023-08-11T17:19:21.148Z,27.61
2023-08-11T17:21:47.957Z,27.64
2023-08-11T17:24:14.815Z,27.37
2023-08-11T17:26:41.633Z,27.29
2023-08-11T17:29:08.540Z,27.18
2023-08-11T17:31:35.602Z,27.23
2023-08-11T17:34:02.597Z,27.41
2023-08-11T17:36:29.454Z,27.41
2023-08-11T17:38:56.286Z,27.47
2023-08-11T17:41:23.103Z,27.60
2023-08-11T17:43:49.910Z,27.65
2023-08-11T17:46:16.878Z,27.49
2023-08-11T17:48:43.727Z,27.67
2023-08-11T17:51:10.934Z,27.56
2023-08-11T17:53:37.773Z,27.72
2023-08-11T17:56:04.629Z,27.72
2023-08-11T17:58:31.446Z,27.83
2023-08-11T18:00:58.320Z,27.88
2023-08-11T18:03:25.205Z,27.75
2023-08-11T18:05:55.120Z,27.81
2023-08-11T18:08:21.986Z,27.67
2023-08-11T18:10:48.816Z,27.70
2023-08-11T18:13:15.628Z,27.78
2023-08-11T18:15:42.477Z,27.75
2023-08-11T18:18:09.381Z,27.72
2023-08-11T18:20:36.292Z,27.70
2023-08-11T18:23:03.458Z,27.86
2023-08-11T18:25:30.373Z,27.88
2023-08-11T18:27:57.302Z,27.89
2023-08-11T18:30:24.232Z,27.98
2023-08-11T18:32:51.086Z,27.96
2023-08-11T18:35:17.966Z,27.85
2023-08-11T18:37:44.812Z,27.98
2023-08-11T18:40:11.635Z,27.92
2023-08-11T18:42:38.517Z,27.90
2023-08-11T18:45:06.459Z,27.97
2023-08-11T18:47:33.460Z,27.95
2023-08-11T18:50:00.286Z,27.96
2023-08-11T18:52:27.128Z,27.89
2023-08-11T18:54:53.986Z,27.92
2023-08-11T18:57:20.828Z,27.98
2023-08-11T18:59:47.723Z,27.98
2023-08-11T19:02:14.788Z,27.98
2023-08-11T19:04:41.868Z,27.99
2023-08-11T19:07:08.685Z,27.99
2023-08-11T19:09:35.588Z,27.99
2023-08-11T19:12:02.384Z,27.97
2023-08-11T19:14:29.238Z,27.95
2023-08-11T19:16:56.020Z,27.95
2023-08-11T19:19:22.871Z,27.93
2023-08-11T19:21:49.657Z,27.93
2023-08-11T19:24:16.496Z,27.92
2023-08-11T19:26:43.360Z,27.89
2023-08-11T19:29:10.294Z,27.91
2023-08-11T19:31:37.195Z,27.86
2023-08-11T19:34:04.065Z,27.91
2023-08-11T19:36:30.866Z,27.91
2023-08-11T19:38:57.721Z,27.90
2023-08-11T19:41:24.878Z,27.88
2023-08-11T19:43:52.001Z,27.88
2023-08-11T19:46:18.979Z,27.81
2023-08-11T19:48:45.912Z,27.86
2023-08-11T19:51:12.765Z,27.93
2023-08-11T19:53:39.718Z,27.87
2023-08-11T19:56:06.630Z,27.90
2023-08-11T19:58:33.555Z,27.89
2023-08-11T20:01:00.413Z,27.88
2023-08-11T20:03:27.237Z,27.73
2023-08-11T20:05:54.072Z,27.80
2023-08-11T20:08:20.938Z,27.68
2023-08-11T20:10:47.733Z,27.69
2023-08-11T20:13:14.538Z,27.78
2023-08-11T20:15:41.441Z,27.81
2023-08-11T20:18:08.356Z,27.78
2023-08-11T20:20:35.355Z,27.73
2023-08-11T20:23:02.240Z,27.76
2023-08-11T20:25:29.091Z,27.75
2023-08-11T20:27:55.990Z,27.76
2023-08-11T20:30:22.843Z,27.69
2023-08-11T20:32:49.754Z,27.63
2023-08-11T20:35:16.641Z,27.51
2023-08-11T20:37:43.471Z,27.49
2023-08-11T20:40:10.360Z,27.47
2023-08-11T20:42:37.208Z,27.61
2023-08-11T20:45:04.036Z,27.51
2023-08-11T20:47:31.012Z,27.43
2023-08-11T20:49:57.949Z,27.30
2023-08-11T20:52:24.799Z,27.17
2023-08-11T20:54:51.643Z,27.08
2023-08-11T20:57:18.580Z,27.00
2023-08-11T20:59:45.391Z,27.02
2023-08-11T21:02:12.354Z,27.05
2023-08-11T21:04:39.208Z,27.08
2023-08-11T21:07:06.109Z,26.99
2023-08-11T21:09:33.001Z,26.99
2023-08-11T21:11:59.903Z,27.00
2023-08-11T21:14:26.758Z,27.02
2023-08-11T21:16:53.633Z,27.14
2023-08-11T21:19:20.497Z,26.98
2023-08-11T21:21:47.305Z,26.76
2023-08-11T21:24:14.176Z,26.77
2023-08-11T21:26:41.097Z,26.61
2023-08-11T21:29:07.908Z,26.81
2023-08-11T21:31:34.937Z,27.21
2023-08-11T21:34:01.861Z,26.90
2023-08-11T21:36:28.711Z,26.84
2023-08-11T21:38:55.585Z,26.91
2023-08-11T21:41:22.446Z,26.83
2023-08-11T21:43:49.298Z,27.18
2023-08-11T21:46:16.169Z,27.42
2023-08-11T21:48:43.126Z,27.48
2023-08-11T21:51:10.021Z,27.38
2023-08-11T21:53:36.918Z,27.11
2023-08-11T21:56:03.776Z,26.93
2023-08-11T21:58:30.700Z,26.77
2023-08-11T22:00:57.731Z,26.91
2023-08-11T22:03:24.626Z,27.05
2023-08-11T22:05:51.508Z,26.84
2023-08-11T22:08:18.338Z,26.81
2023-08-11T22:10:46.283Z,26.39
2023-08-11T22:13:13.233Z,26.61
2023-08-11T22:15:40.145Z,26.59
2023-08-11T22:18:07.018Z,26.61
2023-08-11T22:20:34.002Z,26.65
2023-08-11T22:23:00.951Z,26.77
2023-08-11T22:25:27.849Z,26.74
2023-08-11T22:27:54.706Z,26.84
2023-08-11T22:30:21.508Z,26.64
2023-08-11T22:32:48.333Z,26.91
2023-08-11T22:35:15.285Z,26.76
2023-08-11T22:37:42.175Z,26.76
2023-08-11T22:40:09.024Z,26.76
2023-08-11T22:42:36.003Z,26.71
2023-08-11T22:45:02.876Z,26.79
2023-08-11T22:47:29.830Z,26.75
2023-08-11T22:49:56.843Z,26.48
2023-08-11T22:52:23.712Z,26.42
2023-08-11T22:54:50.625Z,26.38
2023-08-11T22:57:17.472Z,26.02
2023-08-11T22:59:44.415Z,26.21
2023-08-11T23:02:11.282Z,26.45
2023-08-11T23:04:38.200Z,26.49
2023-08-11T23:07:05.076Z,26.51
2023-08-11T23:09:31.873Z,26.56
2023-08-11T23:11:58.667Z,26.17
2023-08-11T23:14:25.505Z,25.84
2023-08-11T23:16:52.359Z,26.02
2023-08-11T23:19:19.276Z,25.78
2023-08-11T23:21:46.133Z,25.75
2023-08-11T23:24:12.965Z,25.95
2023-08-11T23:26:39.896Z,26.31
2023-08-11T23:29:06.729Z,25.86
2023-08-11T23:31:33.665Z,25.72
2023-08-11T23:34:00.508Z,25.65
2023-08-11T23:36:27.382Z,25.81
2023-08-11T23:38:54.196Z,25.92
2023-08-11T23:41:21.070Z,25.62
2023-08-11T23:43:47.948Z,25.96
2023-08-11T23:46:14.981Z,25.38
2023-08-11T23:48:45.134Z,25.26
2023-08-11T23:51:12.032Z,25.27
2023-08-11T23:53:38.917Z,25.30
2023-08-11T23:56:05.835Z,25.33
2023-08-11T23:58:32.741Z,25.35
